createdAt,value
2018-03-24T00:00:39.300Z,19
2018-03-24T00:01:39.309Z,18.89
2018-03-24T00:02:39.349Z,18.84
2018-03-24T00:03:39.334Z,19
2018-03-24T00:04:39.316Z,18.84
2018-03-24T00:05:39.315Z,18.82
2018-03-24T00:06:39.296Z,18.97
2018-03-24T00:07:39.332Z,18.86
2018-03-24T00:08:39.307Z,18.82
2018-03-24T00:09:39.316Z,18.95
2018-03-24T00:10:39.330Z,18.88
2018-03-24T00:11:39.360Z,18.82
2018-03-24T00:12:39.317Z,18.93
2018-03-24T00:13:39.309Z,18.81
2018-03-24T00:14:39.312Z,18.8
2018-03-24T00:15:39.332Z,18.92
2018-03-24T00:16:39.329Z,18.8
2018-03-24T00:17:39.307Z,18.79
2018-03-24T00:18:39.349Z,18.9
2018-03-24T00:19:39.309Z,18.81
2018-03-24T00:20:39.303Z,18.78
2018-03-24T00:21:39.314Z,18.88
2018-03-24T00:22:39.318Z,18.78
2018-03-24T00:23:39.303Z,18.78
2018-03-24T00:24:39.377Z,18.89
2018-03-24T00:25:39.301Z,18.78
2018-03-24T00:26:39.447Z,18.76
2018-03-24T00:27:39.301Z,18.85
2018-03-24T00:28:39.302Z,18.78
2018-03-24T00:29:39.327Z,18.74
2018-03-24T00:30:39.312Z,18.85
2018-03-24T00:31:39.283Z,18.78
2018-03-24T00:32:39.296Z,18.75
2018-03-24T00:33:39.322Z,18.82
2018-03-24T00:34:39.323Z,18.74
2018-03-24T00:35:39.330Z,18.71
2018-03-24T00:36:39.297Z,18.82
2018-03-24T00:37:39.320Z,18.73
2018-03-24T00:38:39.307Z,18.74
2018-03-24T00:39:39.316Z,18.84
2018-03-24T00:40:39.314Z,18.78
2018-03-24T00:41:39.350Z,18.7
2018-03-24T00:42:39.297Z,18.83
2018-03-24T00:43:39.304Z,18.72
2018-03-24T00:44:39.368Z,18.69
2018-03-24T00:45:39.292Z,18.81
2018-03-24T00:46:39.297Z,18.73
2018-03-24T00:47:39.308Z,18.67
2018-03-24T00:48:39.300Z,18.8
2018-03-24T00:49:39.330Z,18.7
2018-03-24T00:50:39.321Z,18.65
2018-03-24T00:51:39.346Z,18.77
2018-03-24T00:52:39.302Z,18.66
2018-03-24T00:53:39.330Z,18.61
2018-03-24T00:54:39.294Z,18.74
2018-03-24T00:55:39.296Z,18.66
2018-03-24T00:56:39.295Z,18.66
2018-03-24T00:57:39.311Z,18.77
2018-03-24T00:58:39.295Z,18.7
2018-03-24T00:59:39.302Z,18.66
2018-03-24T01:00:39.339Z,18.77
2018-03-24T01:01:39.335Z,18.66
2018-03-24T01:02:39.305Z,18.63
2018-03-24T01:03:39.358Z,18.74
2018-03-24T01:04:39.358Z,18.67
2018-03-24T01:05:39.570Z,18.6
2018-03-24T01:06:39.330Z,18.73
2018-03-24T01:07:39.309Z,18.62
2018-03-24T01:08:39.310Z,18.59
2018-03-24T01:09:39.310Z,18.74
2018-03-24T01:10:39.593Z,18.61
2018-03-24T01:11:39.358Z,18.58
2018-03-24T01:12:39.302Z,18.71
2018-03-24T01:13:39.313Z,18.59
2018-03-24T01:14:39.321Z,18.55
2018-03-24T01:15:39.331Z,18.7
2018-03-24T01:16:39.266Z,18.63
2018-03-24T01:17:39.318Z,18.58
2018-03-24T01:18:39.297Z,18.71
2018-03-24T01:19:39.292Z,18.62
2018-03-24T01:20:39.339Z,18.6
2018-03-24T01:21:39.304Z,18.7
2018-03-24T01:22:39.273Z,18.6
2018-03-24T01:23:39.288Z,18.54
2018-03-24T01:24:39.271Z,18.67
2018-03-24T01:25:39.309Z,18.61
2018-03-24T01:26:39.267Z,18.57
2018-03-24T01:27:39.322Z,18.69
2018-03-24T01:28:39.267Z,18.57
2018-03-24T01:29:39.287Z,18.56
2018-03-24T01:30:39.330Z,18.67
2018-03-24T01:31:39.315Z,18.57
2018-03-24T01:32:39.286Z,18.57
2018-03-24T01:33:39.293Z,18.66
2018-03-24T01:34:39.293Z,18.57
2018-03-24T01:35:39.293Z,18.57
2018-03-24T01:36:39.361Z,18.67
2018-03-24T01:37:39.318Z,18.55
2018-03-24T01:38:39.317Z,18.54
2018-03-24T01:39:39.305Z,18.66
2018-03-24T01:40:39.309Z,18.54
2018-03-24T01:41:39.269Z,18.53
2018-03-24T01:42:39.294Z,18.66
2018-03-24T01:43:39.301Z,18.56
2018-03-24T01:44:39.285Z,18.52
2018-03-24T01:45:39.271Z,18.65
2018-03-24T01:46:39.306Z,18.54
2018-03-24T01:47:39.326Z,18.53
2018-03-24T01:48:39.289Z,18.66
2018-03-24T01:49:39.286Z,18.54
2018-03-24T01:50:39.297Z,18.54
2018-03-24T01:51:39.287Z,18.64
2018-03-24T01:52:39.317Z,18.54
2018-03-24T01:53:39.282Z,18.51
2018-03-24T01:54:39.286Z,18.64
2018-03-24T01:55:39.288Z,18.54
2018-03-24T01:56:39.269Z,18.5
2018-03-24T01:57:39.295Z,18.62
2018-03-24T01:58:39.290Z,18.54
2018-03-24T01:59:39.324Z,18.5
2018-03-24T02:00:39.298Z,18.64
2018-03-24T02:01:39.332Z,18.52
2018-03-24T02:02:39.310Z,18.5
2018-03-24T02:03:39.274Z,18.61
2018-03-24T02:04:39.308Z,18.55
2018-03-24T02:05:39.275Z,18.49
2018-03-24T02:06:39.296Z,18.62
2018-03-24T02:07:39.306Z,18.51
2018-03-24T02:08:39.275Z,18.44
2018-03-24T02:09:39.276Z,18.58
2018-03-24T02:10:39.289Z,18.46
2018-03-24T02:11:39.274Z,18.43
2018-03-24T02:12:39.285Z,18.58
2018-03-24T02:13:39.297Z,18.5
2018-03-24T02:14:39.286Z,18.46
2018-03-24T02:15:39.318Z,18.54
2018-03-24T02:16:39.303Z,18.46
2018-03-24T02:17:39.322Z,18.42
2018-03-24T02:18:39.306Z,18.57
2018-03-24T02:19:39.294Z,18.47
2018-03-24T02:20:39.298Z,18.44
2018-03-24T02:21:39.307Z,18.6
2018-03-24T02:22:39.290Z,18.5
2018-03-24T02:23:39.286Z,18.44
2018-03-24T02:24:39.267Z,18.55
2018-03-24T02:25:39.296Z,18.44
2018-03-24T02:26:39.265Z,18.42
2018-03-24T02:27:39.388Z,18.54
2018-03-24T02:28:39.318Z,18.44
2018-03-24T02:29:39.291Z,18.41
2018-03-24T02:30:39.275Z,18.55
2018-03-24T02:31:39.282Z,18.42
2018-03-24T02:32:39.342Z,18.41
2018-03-24T02:33:39.302Z,18.54
2018-03-24T02:34:39.273Z,18.44
2018-03-24T02:35:39.280Z,18.41
2018-03-24T02:36:39.276Z,18.53
2018-03-24T02:37:39.305Z,18.43
2018-03-24T02:38:39.264Z,18.4
2018-03-24T02:39:39.283Z,18.54
2018-03-24T02:40:39.301Z,18.45
2018-03-24T02:41:39.295Z,18.4
2018-03-24T02:42:39.293Z,18.54
2018-03-24T02:43:39.280Z,18.42
2018-03-24T02:44:39.285Z,18.39
2018-03-24T02:45:39.340Z,18.52
2018-03-24T02:46:39.322Z,18.4
2018-03-24T02:47:39.285Z,18.36
2018-03-24T02:48:39.315Z,18.5
2018-03-24T02:49:39.294Z,18.44
2018-03-24T02:50:39.281Z,18.35
2018-03-24T02:51:39.284Z,18.5
2018-03-24T02:52:39.289Z,18.41
2018-03-24T02:53:39.334Z,18.36
2018-03-24T02:54:39.292Z,18.48
2018-03-24T02:55:39.311Z,18.39
2018-03-24T02:56:39.289Z,18.36
2018-03-24T02:57:39.294Z,18.5
2018-03-24T02:58:39.294Z,18.35
2018-03-24T02:59:39.309Z,18.35
2018-03-24T03:00:39.285Z,18.47
2018-03-24T03:01:39.270Z,18.38
2018-03-24T03:02:39.284Z,18.34
2018-03-24T03:03:39.292Z,18.48
2018-03-24T03:04:39.668Z,18.36
2018-03-24T03:05:39.285Z,18.33
2018-03-24T03:06:39.298Z,18.46
2018-03-24T03:07:39.291Z,18.36
2018-03-24T03:08:39.273Z,18.36
2018-03-24T03:09:39.289Z,18.48
2018-03-24T03:10:39.284Z,18.35
2018-03-24T03:11:39.291Z,18.32
2018-03-24T03:12:39.330Z,18.45
2018-03-24T03:13:39.277Z,18.33
2018-03-24T03:14:39.240Z,18.3
2018-03-24T03:15:39.262Z,18.41
2018-03-24T03:16:39.270Z,18.29
2018-03-24T03:17:39.276Z,18.31
2018-03-24T03:18:39.264Z,18.43
2018-03-24T03:19:39.269Z,18.29
2018-03-24T03:20:39.263Z,18.29
2018-03-24T03:21:39.567Z,18.41
2018-03-24T03:22:39.278Z,18.34
2018-03-24T03:23:39.262Z,18.29
2018-03-24T03:24:39.276Z,18.41
2018-03-24T03:25:39.347Z,18.3
2018-03-24T03:26:39.278Z,18.29
2018-03-24T03:27:39.281Z,18.42
2018-03-24T03:28:39.261Z,18.31
2018-03-24T03:29:39.246Z,18.3
2018-03-24T03:30:39.270Z,18.41
2018-03-24T03:31:39.271Z,18.32
2018-03-24T03:32:39.250Z,18.27
2018-03-24T03:33:39.256Z,18.41
2018-03-24T03:34:39.262Z,18.31
2018-03-24T03:35:39.260Z,18.28
2018-03-24T03:36:39.257Z,18.41
2018-03-24T03:37:39.243Z,18.31
2018-03-24T03:38:39.232Z,18.26
2018-03-24T03:39:39.666Z,18.39
2018-03-24T03:40:39.296Z,18.28
2018-03-24T03:41:39.268Z,18.24
2018-03-24T03:42:39.277Z,18.37
2018-03-24T03:43:39.274Z,18.29
2018-03-24T03:44:39.289Z,18.25
2018-03-24T03:45:39.264Z,18.41
2018-03-24T03:46:39.262Z,18.27
2018-03-24T03:47:39.240Z,18.26
2018-03-24T03:48:39.237Z,18.36
2018-03-24T03:49:39.238Z,18.28
2018-03-24T03:50:39.216Z,18.24
2018-03-24T03:51:39.495Z,18.39
2018-03-24T03:52:39.220Z,18.24
2018-03-24T03:53:39.251Z,18.23
2018-03-24T03:54:39.241Z,18.36
2018-03-24T03:55:39.264Z,18.25
2018-03-24T03:56:39.290Z,18.23
2018-03-24T03:57:39.260Z,18.35
2018-03-24T03:58:39.296Z,18.23
2018-03-24T03:59:39.244Z,18.23
2018-03-24T04:00:39.256Z,18.35
2018-03-24T04:01:39.219Z,18.24
2018-03-24T04:02:39.218Z,18.23
2018-03-24T04:03:39.244Z,18.32
2018-03-24T04:04:39.229Z,18.25
2018-03-24T04:05:39.220Z,18.24
2018-03-24T04:06:39.277Z,18.33
2018-03-24T04:07:39.248Z,18.23
2018-03-24T04:08:39.264Z,18.18
2018-03-24T04:09:39.223Z,18.32
2018-03-24T04:10:39.248Z,18.23
2018-03-24T04:11:39.294Z,18.24
2018-03-24T04:12:39.240Z,18.35
2018-03-24T04:13:39.249Z,18.22
2018-03-24T04:14:39.254Z,18.17
2018-03-24T04:15:39.251Z,18.29
2018-03-24T04:16:39.260Z,18.18
2018-03-24T04:17:39.232Z,18.17
2018-03-24T04:18:39.238Z,18.32
2018-03-24T04:19:39.240Z,18.2
2018-03-24T04:20:39.296Z,18.17
2018-03-24T04:21:39.234Z,18.28
2018-03-24T04:22:39.253Z,18.22
2018-03-24T04:23:39.223Z,18.16
2018-03-24T04:24:39.213Z,18.29
2018-03-24T04:25:39.232Z,18.19
2018-03-24T04:26:39.263Z,18.16
2018-03-24T04:27:39.238Z,18.26
2018-03-24T04:28:39.321Z,18.19
2018-03-24T04:29:39.219Z,18.14
2018-03-24T04:30:39.248Z,18.28
2018-03-24T04:31:39.231Z,18.17
2018-03-24T04:32:39.255Z,18.16
2018-03-24T04:33:39.242Z,18.27
2018-03-24T04:34:39.242Z,18.17
2018-03-24T04:35:39.226Z,18.16
2018-03-24T04:36:39.263Z,18.26
2018-03-24T04:37:39.262Z,18.17
2018-03-24T04:38:39.225Z,18.13
2018-03-24T04:39:39.258Z,18.25
2018-03-24T04:40:39.588Z,18.14
2018-03-24T04:41:39.226Z,18.13
2018-03-24T04:42:39.247Z,18.25
2018-03-24T04:43:39.250Z,18.14
2018-03-24T04:44:39.225Z,18.12
2018-03-24T04:45:39.273Z,18.24
2018-03-24T04:46:39.294Z,18.15
2018-03-24T04:47:39.227Z,18.12
2018-03-24T04:48:39.227Z,18.26
2018-03-24T04:49:39.218Z,18.15
2018-03-24T04:50:39.506Z,18.11
2018-03-24T04:51:39.218Z,18.23
2018-03-24T04:52:39.259Z,18.15
2018-03-24T04:53:39.232Z,18.1
2018-03-24T04:54:39.233Z,18.23
2018-03-24T04:55:39.234Z,18.12
2018-03-24T04:56:39.235Z,18.07
2018-03-24T04:57:39.212Z,18.23
2018-03-24T04:58:39.208Z,18.12
2018-03-24T04:59:39.245Z,18.1
2018-03-24T05:00:39.204Z,18.24
2018-03-24T05:01:39.240Z,18.14
2018-03-24T05:02:39.199Z,18.15
2018-03-24T05:03:39.211Z,18.29
2018-03-24T05:04:39.231Z,18.17
2018-03-24T05:05:39.241Z,18.17
2018-03-24T05:06:39.224Z,18.32
2018-03-24T05:07:39.310Z,18.23
2018-03-24T05:08:39.231Z,18.22
2018-03-24T05:09:39.598Z,18.37
2018-03-24T05:10:39.233Z,18.28
2018-03-24T05:11:39.206Z,18.27
2018-03-24T05:12:39.304Z,18.42
2018-03-24T05:13:39.255Z,18.34
2018-03-24T05:14:39.302Z,18.33
2018-03-24T05:15:39.235Z,18.45
2018-03-24T05:16:39.248Z,18.34
2018-03-24T05:17:39.211Z,18.35
2018-03-24T05:18:39.234Z,18.5
2018-03-24T05:19:39.505Z,18.4
2018-03-24T05:20:39.225Z,18.41
2018-03-24T05:21:39.223Z,18.54
2018-03-24T05:22:39.234Z,18.47
2018-03-24T05:23:39.287Z,18.48
2018-03-24T05:24:39.258Z,18.6
2018-03-24T05:25:39.247Z,18.52
2018-03-24T05:26:39.232Z,18.53
2018-03-24T05:27:39.209Z,18.66
2018-03-24T05:28:39.213Z,18.56
2018-03-24T05:29:39.214Z,18.56
2018-03-24T05:30:39.251Z,18.69
2018-03-24T05:31:39.194Z,18.6
2018-03-24T05:32:39.200Z,18.62
2018-03-24T05:33:39.233Z,18.74
2018-03-24T05:34:39.223Z,18.66
2018-03-24T05:35:39.213Z,18.68
2018-03-24T05:36:39.236Z,18.78
2018-03-24T05:37:39.209Z,18.72
2018-03-24T05:38:39.212Z,18.72
2018-03-24T05:39:39.236Z,18.84
2018-03-24T05:40:39.210Z,18.76
2018-03-24T05:41:39.349Z,18.77
2018-03-24T05:42:39.225Z,18.88
2018-03-24T05:43:39.274Z,18.81
2018-03-24T05:44:39.202Z,18.81
2018-03-24T05:45:39.239Z,18.92
2018-03-24T05:46:39.239Z,18.86
2018-03-24T05:47:39.207Z,18.87
2018-03-24T05:48:39.815Z,18.98
2018-03-24T05:49:39.232Z,18.9
2018-03-24T05:50:39.221Z,18.91
2018-03-24T05:51:39.216Z,19.03
2018-03-24T05:52:39.243Z,18.94
2018-03-24T05:53:39.192Z,18.93
2018-03-24T05:54:39.226Z,19.05
2018-03-24T05:55:39.217Z,18.97
2018-03-24T05:56:39.188Z,18.99
2018-03-24T05:57:39.535Z,19.09
2018-03-24T05:58:39.232Z,19.01
2018-03-24T05:59:39.196Z,19.01
2018-03-24T06:00:39.232Z,19.13
2018-03-24T06:01:39.215Z,19.04
2018-03-24T06:02:39.218Z,19.05
2018-03-24T06:03:39.204Z,19.16
2018-03-24T06:04:39.217Z,19.09
2018-03-24T06:05:39.216Z,19.09
2018-03-24T06:06:39.223Z,19.2
2018-03-24T06:07:39.256Z,19.11
2018-03-24T06:08:39.371Z,19.13
2018-03-24T06:09:39.226Z,19.23
2018-03-24T06:10:39.588Z,19.15
2018-03-24T06:11:39.207Z,19.15
2018-03-24T06:12:39.234Z,19.26
2018-03-24T06:13:39.248Z,19.19
2018-03-24T06:14:39.204Z,19.19
2018-03-24T06:15:39.270Z,19.29
2018-03-24T06:16:39.218Z,19.21
2018-03-24T06:17:39.187Z,19.2
2018-03-24T06:18:39.213Z,19.3
2018-03-24T06:19:39.193Z,19.22
2018-03-24T06:20:39.193Z,19.22
2018-03-24T06:21:39.183Z,19.33
2018-03-24T06:22:39.192Z,19.26
2018-03-24T06:23:39.190Z,19.27
2018-03-24T06:24:39.210Z,19.37
2018-03-24T06:25:39.216Z,19.28
2018-03-24T06:26:39.202Z,19.3
2018-03-24T06:27:39.197Z,19.4
2018-03-24T06:28:39.180Z,19.33
2018-03-24T06:29:39.295Z,19.34
2018-03-24T06:30:39.203Z,19.44
2018-03-24T06:31:39.207Z,19.35
2018-03-24T06:32:39.201Z,19.36
2018-03-24T06:33:39.201Z,19.47
2018-03-24T06:34:39.224Z,19.38
2018-03-24T06:35:39.181Z,19.39
2018-03-24T06:36:39.221Z,19.49
2018-03-24T06:37:39.309Z,19.41
2018-03-24T06:38:39.203Z,19.4
2018-03-24T06:39:39.273Z,19.51
2018-03-24T06:40:39.251Z,19.43
2018-03-24T06:41:39.197Z,19.44
2018-03-24T06:42:39.190Z,19.53
2018-03-24T06:43:39.186Z,19.45
2018-03-24T06:44:39.195Z,19.44
2018-03-24T06:45:39.169Z,19.54
2018-03-24T06:46:39.243Z,19.45
2018-03-24T06:47:39.177Z,19.45
2018-03-24T06:48:39.168Z,19.58
2018-03-24T06:49:39.183Z,19.46
2018-03-24T06:50:39.238Z,19.5
2018-03-24T06:51:39.179Z,19.58
2018-03-24T06:52:39.199Z,19.51
2018-03-24T06:53:39.176Z,19.51
2018-03-24T06:54:39.190Z,19.62
2018-03-24T06:55:39.194Z,19.52
2018-03-24T06:56:39.206Z,19.52
2018-03-24T06:57:39.184Z,19.64
2018-03-24T06:58:39.203Z,19.55
2018-03-24T06:59:39.213Z,19.57
2018-03-24T07:00:39.359Z,19.66
2018-03-24T07:01:39.180Z,19.56
2018-03-24T07:02:39.164Z,19.57
2018-03-24T07:03:39.178Z,19.68
2018-03-24T07:04:39.186Z,19.6
2018-03-24T07:05:39.225Z,19.6
2018-03-24T07:06:39.187Z,19.7
2018-03-24T07:07:39.162Z,19.61
2018-03-24T07:08:39.210Z,19.61
2018-03-24T07:09:39.199Z,19.7
2018-03-24T07:10:39.166Z,19.63
2018-03-24T07:11:39.193Z,19.63
2018-03-24T07:12:39.177Z,19.71
2018-03-24T07:13:39.180Z,19.63
2018-03-24T07:14:39.177Z,19.63
2018-03-24T07:15:39.168Z,19.75
2018-03-24T07:16:39.181Z,19.63
2018-03-24T07:17:39.176Z,19.63
2018-03-24T07:18:39.174Z,19.72
2018-03-24T07:19:39.019Z,19.63
2018-03-24T07:20:39.154Z,19.63
2018-03-24T07:21:39.171Z,19.73
2018-03-24T07:22:39.175Z,19.62
2018-03-24T07:23:39.186Z,19.61
2018-03-24T07:24:39.162Z,19.73
2018-03-24T07:25:39.177Z,19.63
2018-03-24T07:26:39.158Z,19.63
2018-03-24T07:27:39.191Z,19.73
2018-03-24T07:28:39.171Z,19.6
2018-03-24T07:29:39.164Z,19.6
2018-03-24T07:30:39.171Z,19.7
2018-03-24T07:31:39.181Z,19.63
2018-03-24T07:32:39.151Z,19.63
2018-03-24T07:33:39.155Z,19.74
2018-03-24T07:34:39.156Z,19.62
2018-03-24T07:35:39.174Z,19.59
2018-03-24T07:36:39.165Z,19.73
2018-03-24T07:37:39.145Z,19.63
2018-03-24T07:38:39.213Z,19.62
2018-03-24T07:39:39.189Z,19.75
2018-03-24T07:40:39.254Z,19.64
2018-03-24T07:41:39.234Z,19.66
2018-03-24T07:42:39.200Z,19.75
2018-03-24T07:43:39.185Z,19.64
2018-03-24T07:44:39.179Z,19.66
2018-03-24T07:45:39.191Z,19.78
2018-03-24T07:46:39.183Z,19.67
2018-03-24T07:47:39.522Z,19.66
2018-03-24T07:48:39.192Z,19.79
2018-03-24T07:49:39.230Z,19.69
2018-03-24T07:50:39.175Z,19.68
2018-03-24T07:51:39.175Z,19.8
2018-03-24T07:52:39.181Z,19.69
2018-03-24T07:53:39.158Z,19.7
2018-03-24T07:54:39.199Z,19.8
2018-03-24T07:55:39.162Z,19.71
2018-03-24T07:56:39.204Z,19.69
2018-03-24T07:57:39.133Z,19.81
2018-03-24T07:58:39.171Z,19.73
2018-03-24T07:59:39.155Z,19.7
2018-03-24T08:00:39.190Z,19.82
2018-03-24T08:01:39.243Z,19.73
2018-03-24T08:02:39.172Z,19.73
2018-03-24T08:03:39.165Z,19.84
2018-03-24T08:04:39.200Z,19.75
2018-03-24T08:05:39.148Z,19.75
2018-03-24T08:06:39.169Z,19.86
2018-03-24T08:07:39.158Z,19.76
2018-03-24T08:08:39.146Z,19.75
2018-03-24T08:09:39.510Z,19.88
2018-03-24T08:10:39.188Z,19.78
2018-03-24T08:11:39.179Z,19.8
2018-03-24T08:12:39.218Z,19.9
2018-03-24T08:13:39.156Z,19.81
2018-03-24T08:14:39.155Z,19.81
2018-03-24T08:15:39.155Z,19.91
2018-03-24T08:16:39.185Z,19.83
2018-03-24T08:17:39.137Z,19.82
2018-03-24T08:18:39.167Z,19.94
2018-03-24T08:19:39.141Z,19.82
2018-03-24T08:20:39.172Z,19.86
2018-03-24T08:21:39.177Z,19.94
2018-03-24T08:22:39.173Z,19.85
2018-03-24T08:23:39.155Z,19.86
2018-03-24T08:24:39.165Z,19.96
2018-03-24T08:25:39.183Z,19.87
2018-03-24T08:26:39.216Z,19.88
2018-03-24T08:27:39.185Z,19.99
2018-03-24T08:28:39.159Z,19.88
2018-03-24T08:29:39.143Z,19.89
2018-03-24T08:30:39.258Z,20
2018-03-24T08:31:39.185Z,19.9
2018-03-24T08:32:39.149Z,19.9
2018-03-24T08:33:39.131Z,20
2018-03-24T08:34:39.142Z,19.9
2018-03-24T08:35:39.135Z,19.91
2018-03-24T08:36:39.147Z,20
2018-03-24T08:37:39.137Z,19.88
2018-03-24T08:38:39.173Z,19.88
2018-03-24T08:39:39.137Z,20
2018-03-24T08:40:39.145Z,19.9
2018-03-24T08:41:39.154Z,19.91
2018-03-24T08:42:39.176Z,20.02
2018-03-24T08:43:39.152Z,19.92
2018-03-24T08:44:39.344Z,19.92
2018-03-24T08:45:39.153Z,20.04
2018-03-24T08:46:39.169Z,19.94
2018-03-24T08:47:39.142Z,19.94
2018-03-24T08:48:39.158Z,20.04
2018-03-24T08:49:39.153Z,19.92
2018-03-24T08:50:39.124Z,19.94
2018-03-24T08:51:39.202Z,20.06
2018-03-24T08:52:39.137Z,19.94
2018-03-24T08:53:39.137Z,19.94
2018-03-24T08:54:39.147Z,20.06
2018-03-24T08:55:39.143Z,19.94
2018-03-24T08:56:39.252Z,19.94
2018-03-24T08:57:39.148Z,20.05
2018-03-24T08:58:39.138Z,19.94
2018-03-24T08:59:39.132Z,19.95
2018-03-24T09:00:39.201Z,20.06
2018-03-24T09:01:39.154Z,19.94
2018-03-24T09:02:39.154Z,19.97
2018-03-24T09:03:39.155Z,20.06
2018-03-24T09:04:39.140Z,19.96
2018-03-24T09:05:39.129Z,20
2018-03-24T09:06:39.150Z,20.07
2018-03-24T09:07:39.135Z,19.97
2018-03-24T09:08:39.140Z,19.98
2018-03-24T09:09:39.124Z,20.09
2018-03-24T09:10:39.142Z,19.98
2018-03-24T09:11:39.113Z,19.91
2018-03-24T09:12:39.145Z,20.03
2018-03-24T09:13:39.161Z,19.96
2018-03-24T09:14:39.160Z,19.97
2018-03-24T09:15:39.134Z,20.1
2018-03-24T09:16:39.145Z,19.99
2018-03-24T09:17:39.130Z,20
2018-03-24T09:18:39.155Z,20.11
2018-03-24T09:19:39.135Z,20.01
2018-03-24T09:20:39.185Z,20.04
2018-03-24T09:21:39.163Z,20.12
2018-03-24T09:22:39.136Z,20.04
2018-03-24T09:23:39.156Z,20.11
2018-03-24T09:24:39.168Z,20.12
2018-03-24T09:25:39.153Z,20
2018-03-24T09:26:39.031Z,19.99
2018-03-24T09:27:39.142Z,20.09
2018-03-24T09:28:39.130Z,20
2018-03-24T09:29:39.153Z,19.98
2018-03-24T09:30:39.137Z,20
2018-03-24T09:31:39.137Z,19.96
2018-03-24T09:32:39.127Z,19.95
2018-03-24T09:33:39.139Z,20.08
2018-03-24T09:34:39.135Z,20
2018-03-24T09:35:39.127Z,20.01
2018-03-24T09:36:39.108Z,20.13
2018-03-24T09:37:39.140Z,20
2018-03-24T09:38:39.121Z,20
2018-03-24T09:39:39.173Z,20.13
2018-03-24T09:40:39.158Z,19.98
2018-03-24T09:41:39.115Z,19.94
2018-03-24T09:42:39.137Z,20.06
2018-03-24T09:43:39.124Z,19.97
2018-03-24T09:44:39.118Z,19.97
2018-03-24T09:45:39.127Z,20.07
2018-03-24T09:46:39.116Z,19.97
2018-03-24T09:47:39.130Z,19.97
2018-03-24T09:48:39.109Z,20.11
2018-03-24T09:49:39.113Z,19.98
2018-03-24T09:50:39.128Z,19.97
2018-03-24T09:51:39.200Z,20.11
2018-03-24T09:52:39.256Z,20.02
2018-03-24T09:53:39.115Z,20
2018-03-24T09:54:39.131Z,20.12
2018-03-24T09:55:39.122Z,20.02
2018-03-24T09:56:39.110Z,20
2018-03-24T09:57:39.130Z,20.13
2018-03-24T09:58:39.120Z,20.01
2018-03-24T09:59:39.139Z,20
2018-03-24T10:00:39.113Z,20.12
2018-03-24T10:01:39.167Z,20.04
2018-03-24T10:02:39.104Z,20.01
2018-03-24T10:03:39.118Z,20.13
2018-03-24T10:04:39.121Z,19.99
2018-03-24T10:05:39.115Z,20
2018-03-24T10:06:39.127Z,20.12
2018-03-24T10:07:39.109Z,20.01
2018-03-24T10:08:39.138Z,20.03
2018-03-24T10:09:39.082Z,20.13
2018-03-24T10:10:39.118Z,20.03
2018-03-24T10:11:39.115Z,20.02
2018-03-24T10:12:39.105Z,20.14
2018-03-24T10:13:39.120Z,20.03
2018-03-24T10:14:39.152Z,20.02
2018-03-24T10:15:39.118Z,20.15
2018-03-24T10:16:39.231Z,20.05
2018-03-24T10:17:39.195Z,20.04
2018-03-24T10:18:39.139Z,20.15
2018-03-24T10:19:39.112Z,20.06
2018-03-24T10:20:39.107Z,20.06
2018-03-24T10:21:39.135Z,20.16
2018-03-24T10:22:39.137Z,20.07
2018-03-24T10:23:39.109Z,20.06
2018-03-24T10:24:39.114Z,20.16
2018-03-24T10:25:39.121Z,20.07
2018-03-24T10:26:39.141Z,20.06
2018-03-24T10:27:39.157Z,20.18
2018-03-24T10:28:39.136Z,20.07
2018-03-24T10:29:39.103Z,20.09
2018-03-24T10:30:39.145Z,20.2
2018-03-24T10:31:39.206Z,20.11
2018-03-24T10:32:39.129Z,20.11
2018-03-24T10:33:39.106Z,20.2
2018-03-24T10:34:39.111Z,20.11
2018-03-24T10:35:39.104Z,20.11
2018-03-24T10:36:39.097Z,20.22
2018-03-24T10:37:39.131Z,20.1
2018-03-24T10:38:39.113Z,20.12
2018-03-24T10:39:39.125Z,20.22
2018-03-24T10:40:39.139Z,20.12
2018-03-24T10:41:39.150Z,20.13
2018-03-24T10:42:39.108Z,20.25
2018-03-24T10:43:39.128Z,20.14
2018-03-24T10:44:39.103Z,20.12
2018-03-24T10:45:39.091Z,20.24
2018-03-24T10:46:39.109Z,20.14
2018-03-24T10:47:39.179Z,20.14
2018-03-24T10:48:39.109Z,20.26
2018-03-24T10:49:39.098Z,20.15
2018-03-24T10:50:39.153Z,20.16
2018-03-24T10:51:39.142Z,20.18
2018-03-24T10:52:39.250Z,20.13
2018-03-24T10:53:39.098Z,20.17
2018-03-24T10:54:39.108Z,20.3
2018-03-24T10:55:39.097Z,20.21
2018-03-24T10:56:39.101Z,20.21
2018-03-24T10:57:39.135Z,20.33
2018-03-24T10:58:39.096Z,20.26
2018-03-24T10:59:39.123Z,20.24
2018-03-24T11:00:39.136Z,20.35
2018-03-24T11:01:39.111Z,20.22
2018-03-24T11:02:39.094Z,20.23
2018-03-24T11:03:39.112Z,20.34
2018-03-24T11:04:39.083Z,20.27
2018-03-24T11:05:39.108Z,20.26
2018-03-24T11:06:39.073Z,20.37
2018-03-24T11:07:39.125Z,20.27
2018-03-24T11:08:39.134Z,20.25
2018-03-24T11:09:39.100Z,20.39
2018-03-24T11:10:39.171Z,20.29
2018-03-24T11:11:39.141Z,20.29
2018-03-24T11:12:39.172Z,20.41
2018-03-24T11:13:39.159Z,20.32
2018-03-24T11:14:39.122Z,20.33
2018-03-24T11:15:39.114Z,20.43
2018-03-24T11:16:39.142Z,20.35
2018-03-24T11:17:39.108Z,20.35
2018-03-24T11:18:39.135Z,20.47
2018-03-24T11:19:39.130Z,20.37
2018-03-24T11:20:39.105Z,20.37
2018-03-24T11:21:39.113Z,20.47
2018-03-24T11:22:39.112Z,20.38
2018-03-24T11:23:39.099Z,20.39
2018-03-24T11:24:39.135Z,20.49
2018-03-24T11:25:39.112Z,20.39
2018-03-24T11:26:39.104Z,20.4
2018-03-24T11:27:39.098Z,20.5
2018-03-24T11:28:39.109Z,20.44
2018-03-24T11:29:39.100Z,20.44
2018-03-24T11:30:39.096Z,20.53
2018-03-24T11:31:39.088Z,20.44
2018-03-24T11:32:39.164Z,20.43
2018-03-24T11:33:39.109Z,20.54
2018-03-24T11:34:39.139Z,20.45
2018-03-24T11:35:39.101Z,20.43
2018-03-24T11:36:39.103Z,20.59
2018-03-24T11:37:39.104Z,20.48
2018-03-24T11:38:39.086Z,20.48
2018-03-24T11:39:39.101Z,20.59
2018-03-24T11:40:39.087Z,20.47
2018-03-24T11:41:39.092Z,20.47
2018-03-24T11:42:39.132Z,20.58
2018-03-24T11:43:39.107Z,20.48
2018-03-24T11:44:39.126Z,20.47
2018-03-24T11:45:39.099Z,20.59
2018-03-24T11:46:39.133Z,20.47
2018-03-24T11:47:39.079Z,20.44
2018-03-24T11:48:39.106Z,20.56
2018-03-24T11:49:39.121Z,20.42
2018-03-24T11:50:39.075Z,20.42
2018-03-24T11:51:39.126Z,20.53
2018-03-24T11:52:39.116Z,20.42
2018-03-24T11:53:39.150Z,20.41
2018-03-24T11:54:39.099Z,20.54
2018-03-24T11:55:39.083Z,20.41
2018-03-24T11:56:39.170Z,20.43
2018-03-24T11:57:39.085Z,20.52
2018-03-24T11:58:39.169Z,20.41
2018-03-24T11:59:39.100Z,20.37
2018-03-24T12:00:39.077Z,20.5
2018-03-24T12:01:39.147Z,20.38
2018-03-24T12:02:39.066Z,20.38
2018-03-24T12:03:39.174Z,20.47
2018-03-24T12:04:39.111Z,20.34
2018-03-24T12:05:39.067Z,20.35
2018-03-24T12:06:39.066Z,20.44
2018-03-24T12:07:39.085Z,20.31
2018-03-24T12:08:39.050Z,20.3
2018-03-24T12:09:39.081Z,20.44
2018-03-24T12:10:39.141Z,20.31
2018-03-24T12:11:39.107Z,20.3
2018-03-24T12:12:39.100Z,20.41
2018-03-24T12:13:39.093Z,20.31
2018-03-24T12:14:39.096Z,20.32
2018-03-24T12:15:39.096Z,20.45
2018-03-24T12:16:39.095Z,20.39
2018-03-24T12:17:39.103Z,20.38
2018-03-24T12:18:39.118Z,20.47
2018-03-24T12:19:39.110Z,20.39
2018-03-24T12:20:39.064Z,20.38
2018-03-24T12:21:39.211Z,20.49
2018-03-24T12:22:39.103Z,20.36
2018-03-24T12:23:39.125Z,20.35
2018-03-24T12:24:39.115Z,20.48
2018-03-24T12:25:39.153Z,20.36
2018-03-24T12:26:39.096Z,20.35
2018-03-24T12:27:39.061Z,20.45
2018-03-24T12:28:39.102Z,20.35
2018-03-24T12:29:39.155Z,20.35
2018-03-24T12:30:39.096Z,20.46
2018-03-24T12:31:39.169Z,20.32
2018-03-24T12:32:39.277Z,20.31
2018-03-24T12:33:39.077Z,20.45
2018-03-24T12:34:39.064Z,20.33
2018-03-24T12:35:39.129Z,20.33
2018-03-24T12:36:39.151Z,20.44
2018-03-24T12:37:39.169Z,20.3
2018-03-24T12:38:39.164Z,20.3
2018-03-24T12:39:39.070Z,20.41
2018-03-24T12:40:39.118Z,20.31
2018-03-24T12:41:39.061Z,20.3
2018-03-24T12:42:39.079Z,20.42
2018-03-24T12:43:39.178Z,20.31
2018-03-24T12:44:39.173Z,20.3
2018-03-24T12:45:39.094Z,20.43
2018-03-24T12:46:39.054Z,20.3
2018-03-24T12:47:39.061Z,20.3
2018-03-24T12:48:39.158Z,20.41
2018-03-24T12:49:39.059Z,20.29
2018-03-24T12:50:39.088Z,20.27
2018-03-24T12:51:39.143Z,20.39
2018-03-24T12:52:39.095Z,20.29
2018-03-24T12:53:39.073Z,20.31
2018-03-24T12:54:39.071Z,20.41
2018-03-24T12:55:39.079Z,20.3
2018-03-24T12:56:39.089Z,20.28